North Platte, Nebraska
Current Conditions -  °F | °C
As of 2:53 PM on Friday 31 Oct 2014 (Local Time) from KLBF Reporting Station
Clear Clear  
Wind Chill:   Ceiling: Unl
Heat Index:   Visibility: 10mi
Dew Point: -8°   Wind: 12mph
Humidity: 30%   Direction: 150°SSE
Pressure: 30.38"   Gusts: NA
Location:  41.14°N, 100.76°W
Report Text: KLBF 311953Z AUTO 15010KT 100V170 10SM CLR 09/M08 A3038 RMK AO2 SLP303 T00891078
Loading
Personal Weather Stations






























Interactive Weather Map
Tropical Storm Tracking
New forecast layout! Learn more

10-Day Weather Forecast

Advertisements
Track Severe Weather on mobile